createdAt,value
2019-02-24T00:01:51.675Z,59.11
2019-02-24T00:04:24.523Z,59.24
2019-02-24T00:06:57.460Z,58.53
2019-02-24T00:09:30.344Z,59.00
2019-02-24T00:12:03.255Z,58.37
2019-02-24T00:14:36.207Z,58.86
2019-02-24T00:17:09.026Z,59.78
2019-02-24T00:19:41.890Z,60.21
2019-02-24T00:22:14.806Z,59.97
2019-02-24T00:24:47.703Z,59.96
2019-02-24T00:27:20.550Z,59.68
2019-02-24T00:29:53.579Z,60.40
2019-02-24T00:32:26.357Z,60.43
2019-02-24T00:35:02.197Z,60.89
2019-02-24T00:37:35.071Z,61.11
2019-02-24T00:40:07.986Z,59.45
2019-02-24T00:42:40.921Z,58.64
2019-02-24T00:45:13.776Z,58.08
2019-02-24T00:47:46.627Z,57.61
2019-02-24T00:50:19.350Z,57.77
2019-02-24T00:52:52.191Z,58.08
2019-02-24T00:55:24.957Z,58.24
2019-02-24T00:57:57.790Z,59.15
2019-02-24T01:00:30.536Z,59.53
2019-02-24T01:03:03.384Z,59.22
2019-02-24T01:05:36.426Z,58.91
2019-02-24T01:08:09.292Z,58.55
2019-02-24T01:10:42.099Z,58.52
2019-02-24T01:13:14.918Z,58.16
2019-02-24T01:15:47.965Z,57.78
2019-02-24T01:18:20.906Z,57.45
2019-02-24T01:20:53.687Z,58.27
2019-02-24T01:23:27.059Z,59.46
2019-02-24T01:25:59.770Z,59.63
2019-02-24T01:28:32.637Z,60.20
2019-02-24T01:31:05.494Z,59.54
2019-02-24T01:33:38.354Z,59.22
2019-02-24T01:36:11.475Z,59.50
2019-02-24T01:38:44.336Z,58.91
2019-02-24T01:41:17.079Z,58.59
2019-02-24T01:43:49.809Z,58.94
2019-02-24T01:46:22.806Z,59.18
2019-02-24T01:48:55.567Z,58.59
2019-02-24T01:51:28.359Z,58.25
2019-02-24T01:54:01.172Z,58.58
2019-02-24T01:56:34.048Z,58.26
2019-02-24T01:59:06.941Z,58.56
2019-02-24T02:01:39.742Z,58.43
2019-02-24T02:04:12.525Z,58.72
2019-02-24T02:06:45.430Z,58.91
2019-02-24T02:09:18.375Z,58.23
2019-02-24T02:11:52.044Z,58.17
2019-02-24T02:14:24.799Z,58.00
2019-02-24T02:16:57.580Z,57.92
2019-02-24T02:19:30.430Z,58.43
2019-02-24T02:22:03.329Z,58.88
2019-02-24T02:24:36.214Z,58.21
2019-02-24T02:27:09.124Z,58.09
2019-02-24T02:29:42.033Z,58.99
2019-02-24T02:32:14.858Z,59.35
2019-02-24T02:34:47.777Z,59.10
2019-02-24T02:37:20.551Z,58.76
2019-02-24T02:39:53.597Z,59.09
2019-02-24T02:42:26.577Z,58.31
2019-02-24T02:44:59.360Z,58.06
2019-02-24T02:47:32.203Z,58.19
2019-02-24T02:50:05.217Z,57.98
2019-02-24T02:52:38.064Z,58.19
2019-02-24T02:55:11.076Z,58.58
2019-02-24T02:57:43.933Z,58.55
2019-02-24T03:00:33.834Z,58.39
2019-02-24T03:03:06.536Z,57.76
2019-02-24T03:05:40.957Z,57.91
2019-02-24T03:08:15.265Z,57.58
2019-02-24T03:10:48.094Z,57.19
2019-02-24T03:13:20.937Z,57.35
2019-02-24T03:15:53.718Z,57.65
2019-02-24T03:18:28.263Z,57.83
2019-02-24T03:21:01.132Z,58.31
2019-02-24T03:23:34.119Z,58.20
2019-02-24T03:26:06.929Z,58.37
2019-02-24T03:28:39.787Z,58.41
2019-02-24T03:31:12.558Z,59.06
2019-02-24T03:33:45.409Z,58.95
2019-02-24T03:36:18.164Z,58.78
2019-02-24T03:38:51.008Z,58.91
2019-02-24T03:41:23.860Z,58.57
2019-02-24T03:43:56.747Z,58.92
2019-02-24T03:46:29.492Z,58.51
2019-02-24T03:49:02.298Z,58.59
2019-02-24T03:51:35.249Z,58.12
2019-02-24T03:54:10.600Z,57.97
2019-02-24T03:56:43.297Z,58.05
2019-02-24T03:59:16.007Z,57.92
2019-02-24T04:01:48.702Z,58.24
2019-02-24T04:04:22.022Z,58.93
2019-02-24T04:06:54.710Z,58.72
2019-02-24T04:09:27.845Z,60.12
2019-02-24T04:12:00.580Z,61.00
2019-02-24T04:14:33.363Z,59.95
2019-02-24T04:17:06.276Z,59.68
2019-02-24T04:19:40.064Z,59.79
2019-02-24T04:22:12.996Z,60.02
2019-02-24T04:24:45.878Z,59.81
2019-02-24T04:27:18.641Z,59.64
2019-02-24T04:29:51.388Z,59.72
2019-02-24T04:32:24.204Z,60.07
2019-02-24T04:34:56.986Z,60.62
2019-02-24T04:37:29.731Z,60.49
2019-02-24T04:40:02.544Z,60.69
2019-02-24T04:42:36.454Z,60.72
2019-02-24T04:45:09.360Z,60.93
2019-02-24T04:47:42.164Z,61.16
2019-02-24T04:50:14.887Z,60.34
2019-02-24T04:52:47.743Z,60.39
2019-02-24T04:55:20.537Z,60.99
2019-02-24T04:57:53.283Z,61.30
2019-02-24T05:00:26.119Z,61.80
2019-02-24T05:02:58.920Z,62.07
2019-02-24T05:05:31.753Z,62.49
2019-02-24T05:08:04.955Z,62.79
2019-02-24T05:10:38.009Z,63.05
2019-02-24T05:13:10.929Z,62.81
2019-02-24T05:15:43.827Z,62.47
2019-02-24T05:18:16.588Z,62.11
2019-02-24T05:20:49.359Z,62.28
2019-02-24T05:23:22.092Z,61.77
2019-02-24T05:25:54.935Z,62.77
2019-02-24T05:28:27.668Z,63.00
2019-02-24T05:31:00.404Z,62.60
2019-02-24T05:33:33.179Z,62.54
2019-02-24T05:36:06.052Z,63.05
2019-02-24T05:38:38.816Z,62.96
2019-02-24T05:41:11.661Z,63.16
2019-02-24T05:43:44.405Z,62.77
2019-02-24T05:46:17.192Z,62.57
2019-02-24T05:48:49.974Z,62.40
2019-02-24T05:51:26.917Z,62.69
2019-02-24T05:54:01.186Z,62.18
2019-02-24T05:56:35.525Z,62.24
2019-02-24T05:59:08.306Z,61.76
2019-02-24T06:01:41.149Z,61.78
2019-02-24T06:04:13.840Z,62.30
2019-02-24T06:06:46.723Z,62.28
2019-02-24T06:09:19.599Z,62.34
2019-02-24T06:11:52.382Z,62.30
2019-02-24T06:14:25.245Z,62.50
2019-02-24T06:16:58.056Z,61.98
2019-02-24T06:19:30.728Z,60.91
2019-02-24T06:22:03.506Z,60.37
2019-02-24T06:24:36.360Z,60.06
2019-02-24T06:27:09.141Z,59.47
2019-02-24T06:29:41.969Z,58.65
2019-02-24T06:32:14.716Z,58.69
2019-02-24T06:34:47.493Z,59.13
2019-02-24T06:37:20.233Z,57.83
2019-02-24T06:39:52.946Z,57.69
2019-02-24T06:42:25.650Z,57.25
2019-02-24T06:44:58.418Z,57.21
2019-02-24T06:47:31.141Z,56.98
2019-02-24T06:50:04.008Z,56.78
2019-02-24T06:52:36.815Z,56.96
2019-02-24T06:55:09.698Z,57.43
2019-02-24T06:57:42.504Z,57.13
2019-02-24T07:00:15.262Z,57.08
2019-02-24T07:02:48.175Z,56.67
2019-02-24T07:05:21.171Z,56.97
2019-02-24T07:07:54.067Z,56.72
2019-02-24T07:10:29.239Z,56.62
2019-02-24T07:13:08.757Z,56.67
2019-02-24T07:15:42.631Z,56.51
2019-02-24T07:18:18.359Z,56.68
2019-02-24T07:20:51.150Z,56.57
2019-02-24T07:23:23.919Z,57.41
2019-02-24T07:25:56.660Z,57.08
2019-02-24T07:28:29.528Z,56.68
2019-02-24T07:31:02.327Z,56.17
2019-02-24T07:33:41.026Z,56.19
2019-02-24T07:36:18.926Z,56.38
2019-02-24T07:38:51.736Z,55.80
2019-02-24T07:41:24.596Z,55.99
2019-02-24T07:43:57.420Z,56.28
2019-02-24T07:46:31.266Z,56.19
2019-02-24T07:49:04.173Z,55.61
2019-02-24T07:51:37.244Z,54.91
2019-02-24T07:54:10.167Z,54.77
2019-02-24T07:56:43.040Z,55.00
2019-02-24T07:59:15.831Z,54.47
2019-02-24T08:01:49.005Z,55.00
2019-02-24T08:04:21.880Z,54.55
2019-02-24T08:06:54.834Z,54.41
2019-02-24T08:09:27.954Z,54.57
2019-02-24T08:12:00.951Z,53.41
2019-02-24T08:14:33.813Z,53.53
2019-02-24T08:17:06.608Z,53.43
2019-02-24T08:19:39.538Z,52.77
2019-02-24T08:22:13.050Z,53.84
2019-02-24T08:24:47.087Z,52.26
2019-02-24T08:27:22.809Z,52.52
2019-02-24T08:29:55.910Z,52.59
2019-02-24T08:32:30.482Z,52.55
2019-02-24T08:35:03.314Z,52.04
2019-02-24T08:37:36.224Z,51.74
2019-02-24T08:40:09.826Z,51.94
2019-02-24T08:42:42.751Z,52.12
2019-02-24T08:45:15.591Z,52.32
2019-02-24T08:47:48.627Z,52.95
2019-02-24T08:50:21.482Z,53.14
2019-02-24T08:52:54.627Z,52.89
2019-02-24T08:55:27.728Z,52.07
2019-02-24T08:58:00.610Z,50.67
2019-02-24T09:00:33.599Z,48.33
2019-02-24T09:03:06.732Z,46.41
2019-02-24T09:05:41.123Z,43.19
2019-02-24T09:08:17.188Z,41.54
2019-02-24T09:10:51.605Z,39.94
2019-02-24T09:13:37.875Z,37.75
2019-02-24T09:16:13.726Z,36.46
2019-02-24T09:18:46.871Z,36.51
2019-02-24T09:21:27.250Z,35.72
2019-02-24T09:24:00.070Z,39.05
2019-02-24T09:26:33.110Z,37.24
2019-02-24T09:29:09.185Z,36.64
2019-02-24T09:31:45.315Z,36.40
2019-02-24T09:34:18.067Z,35.95
2019-02-24T09:36:51.527Z,36.93
2019-02-24T09:39:24.511Z,35.84
2019-02-24T09:42:08.970Z,35.84
2019-02-24T09:44:41.755Z,34.16
2019-02-24T09:47:14.645Z,35.03
2019-02-24T09:49:47.460Z,36.54
2019-02-24T09:52:20.397Z,34.92
2019-02-24T09:54:53.236Z,36.85
2019-02-24T09:57:26.203Z,36.68
2019-02-24T09:59:59.078Z,36.40
2019-02-24T10:02:33.158Z,37.07
2019-02-24T10:05:06.809Z,37.20
2019-02-24T10:07:40.212Z,35.86
2019-02-24T10:10:13.284Z,36.66
2019-02-24T10:12:46.081Z,38.72
2019-02-24T10:15:18.909Z,38.72
2019-02-24T10:17:54.802Z,39.48
2019-02-24T10:20:27.812Z,39.48
2019-02-24T10:23:00.770Z,38.48
2019-02-24T10:25:33.669Z,40.24
2019-02-24T10:28:06.504Z,40.34
2019-02-24T10:30:39.368Z,42.11
2019-02-24T10:33:12.320Z,41.48
2019-02-24T10:35:45.234Z,41.44
2019-02-24T10:38:18.279Z,41.05
2019-02-24T10:40:51.104Z,37.80
2019-02-24T10:43:24.185Z,37.80
2019-02-24T10:45:57.408Z,34.74
2019-02-24T10:48:30.190Z,33.38
2019-02-24T10:51:03.309Z,33.38
2019-02-24T10:53:36.249Z,34.31
2019-02-24T10:56:09.362Z,34.31
2019-02-24T10:58:42.193Z,32.97
2019-02-24T11:01:15.130Z,32.12
2019-02-24T11:03:48.130Z,32.67
2019-02-24T11:06:20.957Z,35.13
2019-02-24T11:08:53.856Z,34.66
2019-02-24T11:11:26.751Z,34.66
2019-02-24T11:13:59.532Z,34.90
2019-02-24T11:16:32.319Z,34.46
2019-02-24T11:19:05.156Z,34.46
2019-02-24T11:21:38.011Z,31.50
2019-02-24T11:24:10.866Z,32.11
2019-02-24T11:26:43.721Z,29.54
2019-02-24T11:29:16.756Z,30.49
2019-02-24T11:31:50.746Z,28.46
2019-02-24T11:34:24.780Z,27.38
2019-02-24T11:36:57.570Z,26.61
2019-02-24T11:39:30.501Z,26.19
2019-02-24T11:42:03.546Z,26.19
2019-02-24T11:44:36.607Z,25.18
2019-02-24T11:47:09.550Z,25.15
2019-02-24T11:49:42.319Z,25.56
2019-02-24T11:52:15.372Z,25.39
2019-02-24T11:54:50.043Z,26.04
2019-02-24T11:57:22.908Z,26.94
2019-02-24T11:59:56.298Z,27.79
2019-02-24T12:02:34.464Z,26.03
2019-02-24T12:05:05.751Z,26.81
2019-02-24T12:07:42.565Z,26.85
2019-02-24T12:10:16.517Z,26.77
2019-02-24T12:12:49.486Z,26.92
2019-02-24T12:15:22.581Z,26.49
2019-02-24T12:17:56.061Z,27.17
2019-02-24T12:20:28.986Z,27.49
2019-02-24T12:23:01.993Z,28.06
2019-02-24T12:25:34.907Z,26.58
2019-02-24T12:28:07.802Z,28.50
2019-02-24T12:30:40.744Z,28.33
2019-02-24T12:33:13.406Z,28.33
2019-02-24T12:35:48.158Z,28.34
2019-02-24T12:38:22.364Z,28.42
2019-02-24T12:40:55.574Z,28.68
2019-02-24T12:43:28.458Z,29.06
2019-02-24T12:46:03.846Z,28.33
2019-02-24T12:48:36.645Z,28.77
2019-02-24T12:51:09.520Z,29.12
2019-02-24T12:53:42.324Z,28.46
2019-02-24T12:56:15.077Z,29.04
2019-02-24T12:58:48.148Z,29.37
2019-02-24T13:01:21.049Z,29.89
2019-02-24T13:03:54.066Z,29.81
2019-02-24T13:06:26.833Z,29.85
2019-02-24T13:08:59.910Z,28.94
2019-02-24T13:11:32.895Z,28.56
2019-02-24T13:14:05.947Z,28.56
2019-02-24T13:16:38.793Z,28.42
2019-02-24T13:19:11.643Z,28.68
2019-02-24T13:21:44.391Z,26.99
2019-02-24T13:24:18.958Z,26.99
2019-02-24T13:26:51.888Z,27.08
2019-02-24T13:29:24.807Z,27.04
2019-02-24T13:31:57.768Z,26.51
2019-02-24T13:34:31.703Z,27.47
2019-02-24T13:37:04.591Z,26.70
2019-02-24T13:39:37.483Z,26.85
2019-02-24T13:42:11.100Z,27.28
2019-02-24T13:44:44.006Z,27.14
2019-02-24T13:47:16.791Z,27.08
2019-02-24T13:49:49.548Z,27.05
2019-02-24T13:52:22.266Z,27.05
2019-02-24T13:54:55.049Z,26.47
2019-02-24T13:57:28.203Z,24.46
2019-02-24T14:00:00.952Z,24.94
2019-02-24T14:02:35.404Z,23.73
2019-02-24T14:05:08.185Z,24.01
2019-02-24T14:07:40.991Z,24.96
2019-02-24T14:10:14.134Z,25.37
2019-02-24T14:12:47.222Z,24.15
2019-02-24T14:15:20.163Z,24.77
2019-02-24T14:17:53.007Z,24.12
2019-02-24T14:20:25.746Z,23.14
2019-02-24T14:22:58.653Z,23.19
2019-02-24T14:25:31.458Z,23.41
2019-02-24T14:28:04.272Z,23.79
2019-02-24T14:30:36.972Z,23.16
2019-02-24T14:33:11.143Z,23.61
2019-02-24T14:35:43.868Z,24.26
2019-02-24T14:38:16.812Z,25.35
2019-02-24T14:40:49.669Z,25.85
2019-02-24T14:43:22.493Z,25.47
2019-02-24T14:45:56.184Z,26.66
2019-02-24T14:48:29.104Z,25.06
2019-02-24T14:51:01.988Z,25.63
2019-02-24T14:53:37.094Z,26.64
2019-02-24T14:56:09.974Z,24.49
2019-02-24T14:58:42.852Z,26.08
2019-02-24T15:01:16.098Z,26.58
2019-02-24T15:03:48.988Z,25.88
2019-02-24T15:06:21.779Z,24.90
2019-02-24T15:08:54.535Z,24.75
2019-02-24T15:11:30.056Z,25.05
2019-02-24T15:14:02.933Z,25.05
2019-02-24T15:16:35.767Z,24.17
2019-02-24T15:19:08.588Z,24.46
2019-02-24T15:21:41.424Z,24.35
2019-02-24T15:24:15.259Z,25.31
2019-02-24T15:26:48.049Z,24.79
2019-02-24T15:29:21.908Z,26.09
2019-02-24T15:31:54.637Z,26.01
2019-02-24T15:34:27.384Z,26.38
2019-02-24T15:37:00.301Z,27.07
2019-02-24T15:39:33.321Z,27.40
2019-02-24T15:42:06.405Z,27.81
2019-02-24T15:44:40.978Z,27.86
2019-02-24T15:47:13.987Z,28.69
2019-02-24T15:49:47.624Z,27.02
2019-02-24T15:52:20.631Z,27.02
2019-02-24T15:55:00.028Z,27.95
2019-02-24T15:57:33.174Z,27.93
2019-02-24T16:00:08.985Z,27.93
2019-02-24T16:02:42.505Z,28.71
2019-02-24T16:05:15.547Z,31.58
2019-02-24T16:07:50.733Z,32.61
2019-02-24T16:10:23.832Z,33.67
2019-02-24T16:12:56.964Z,33.67
2019-02-24T16:15:32.718Z,36.27
2019-02-24T16:18:05.970Z,37.71
2019-02-24T16:20:39.056Z,38.33
2019-02-24T16:23:12.200Z,38.98
2019-02-24T16:25:45.065Z,39.06
2019-02-24T16:28:17.868Z,39.50
2019-02-24T16:30:50.607Z,40.25
2019-02-24T16:33:23.681Z,40.15
2019-02-24T16:35:56.813Z,40.50
2019-02-24T16:38:29.585Z,40.78
2019-02-24T16:41:02.329Z,40.82
2019-02-24T16:43:35.305Z,41.27
2019-02-24T16:46:08.254Z,41.14
2019-02-24T16:48:41.012Z,41.20
2019-02-24T16:51:13.793Z,39.98
2019-02-24T16:53:46.679Z,39.71
2019-02-24T16:56:19.400Z,41.57
2019-02-24T16:58:52.358Z,41.31
2019-02-24T17:01:25.188Z,41.38
2019-02-24T17:03:58.224Z,42.88
2019-02-24T17:06:31.164Z,42.49
2019-02-24T17:09:04.517Z,42.97
2019-02-24T17:11:39.017Z,42.49
2019-02-24T17:14:11.846Z,43.21
2019-02-24T17:16:44.754Z,44.61
2019-02-24T17:19:17.600Z,44.68
2019-02-24T17:21:50.442Z,45.08
2019-02-24T17:24:25.026Z,45.05
2019-02-24T17:26:58.140Z,45.62
2019-02-24T17:29:31.335Z,44.68
2019-02-24T17:32:07.756Z,45.01
2019-02-24T17:34:41.486Z,44.80
2019-02-24T17:37:19.985Z,44.64
2019-02-24T17:39:49.050Z,45.26
2019-02-24T17:42:22.027Z,44.48
2019-02-24T17:44:55.065Z,44.48
2019-02-24T17:47:29.166Z,44.37
2019-02-24T17:50:02.113Z,43.42
2019-02-24T17:52:35.210Z,42.73
2019-02-24T17:55:10.038Z,42.27
2019-02-24T17:57:43.916Z,41.40
2019-02-24T18:00:24.243Z,40.95
2019-02-24T18:02:57.889Z,41.20
2019-02-24T18:05:31.046Z,41.09
2019-02-24T18:08:06.850Z,40.99
2019-02-24T18:10:39.950Z,41.45
2019-02-24T18:13:12.894Z,41.66
2019-02-24T18:15:45.670Z,41.82
2019-02-24T18:18:18.481Z,42.05
2019-02-24T18:20:51.399Z,41.97
2019-02-24T18:23:24.478Z,43.18
2019-02-24T18:25:57.273Z,44.37
2019-02-24T18:28:30.586Z,44.54
2019-02-24T18:31:03.607Z,45.18
2019-02-24T18:33:36.778Z,42.79
2019-02-24T18:36:09.646Z,41.74
2019-02-24T18:38:42.339Z,40.95
2019-02-24T18:41:15.714Z,41.14
2019-02-24T18:43:48.531Z,41.78
2019-02-24T18:46:21.478Z,41.17
2019-02-24T18:48:54.486Z,40.88
2019-02-24T18:51:27.406Z,41.13
2019-02-24T18:54:00.599Z,42.01
2019-02-24T18:56:33.561Z,43.72
2019-02-24T18:59:06.533Z,43.85
2019-02-24T19:01:39.515Z,42.83
2019-02-24T19:04:12.326Z,40.85
2019-02-24T19:06:45.155Z,41.35
2019-02-24T19:09:18.215Z,41.25
2019-02-24T19:11:51.175Z,40.94
2019-02-24T19:14:24.133Z,40.59
2019-02-24T19:16:57.312Z,40.97
2019-02-24T19:19:30.327Z,41.21
2019-02-24T19:22:03.156Z,40.74
2019-02-24T19:24:37.295Z,40.31
2019-02-24T19:27:10.258Z,40.89
2019-02-24T19:29:43.208Z,41.30
2019-02-24T19:32:16.182Z,40.44
2019-02-24T19:34:50.126Z,40.74
2019-02-24T19:37:22.959Z,41.27
2019-02-24T19:39:55.899Z,41.71
2019-02-24T19:42:28.751Z,41.58
2019-02-24T19:45:02.779Z,41.20
2019-02-24T19:47:35.755Z,40.89
2019-02-24T19:50:14.238Z,40.82
2019-02-24T19:52:47.275Z,40.97
2019-02-24T19:55:20.313Z,41.21
2019-02-24T19:57:53.225Z,41.29
2019-02-24T20:00:26.929Z,41.28
2019-02-24T20:03:02.956Z,41.32
2019-02-24T20:05:37.825Z,41.43
2019-02-24T20:08:13.006Z,41.74
2019-02-24T20:10:54.088Z,41.83
2019-02-24T20:13:41.058Z,42.28
2019-02-24T20:16:15.433Z,42.34
2019-02-24T20:18:51.109Z,42.58
2019-02-24T20:21:24.535Z,42.61
2019-02-24T20:24:03.325Z,43.55
2019-02-24T20:26:36.404Z,43.75
2019-02-24T20:29:10.504Z,43.48
2019-02-24T20:31:43.609Z,43.36
2019-02-24T20:34:24.957Z,43.54
2019-02-24T20:36:51.078Z,43.89
2019-02-24T20:39:24.065Z,43.83
2019-02-24T20:41:57.127Z,44.42
2019-02-24T20:44:30.013Z,44.56
2019-02-24T20:47:02.765Z,44.26
2019-02-24T20:49:35.713Z,44.65
2019-02-24T20:52:08.670Z,44.11
2019-02-24T20:54:41.563Z,44.25
2019-02-24T20:57:14.589Z,44.50
2019-02-24T20:59:47.365Z,44.81
2019-02-24T21:02:20.255Z,44.92
2019-02-24T21:04:53.242Z,45.34
2019-02-24T21:07:26.129Z,45.49
2019-02-24T21:09:59.041Z,46.03
2019-02-24T21:12:31.788Z,46.09
2019-02-24T21:15:04.678Z,46.04
2019-02-24T21:17:37.531Z,45.60
2019-02-24T21:20:14.283Z,45.34
2019-02-24T21:22:47.061Z,44.99
2019-02-24T21:25:19.819Z,44.93
2019-02-24T21:27:53.006Z,44.95
2019-02-24T21:30:25.908Z,45.17
2019-02-24T21:32:58.708Z,45.25
2019-02-24T21:35:31.787Z,45.38
2019-02-24T21:38:04.884Z,45.29
2019-02-24T21:40:37.789Z,45.19
2019-02-24T21:43:10.650Z,44.88
2019-02-24T21:45:43.508Z,44.84
2019-02-24T21:48:16.397Z,44.74
2019-02-24T21:50:49.271Z,44.76
2019-02-24T21:53:22.020Z,44.61
2019-02-24T21:55:54.881Z,44.81
2019-02-24T21:58:28.059Z,45.07
2019-02-24T22:01:01.023Z,44.98
2019-02-24T22:03:35.003Z,45.31
2019-02-24T22:06:07.995Z,45.10
2019-02-24T22:08:40.864Z,45.12
2019-02-24T22:11:13.705Z,45.24
2019-02-24T22:13:46.398Z,45.32
2019-02-24T22:16:20.275Z,45.41
2019-02-24T22:18:53.074Z,45.77
2019-02-24T22:21:25.857Z,46.07
2019-02-24T22:23:58.704Z,46.04
2019-02-24T22:26:31.449Z,46.33
2019-02-24T22:29:05.151Z,46.79
2019-02-24T22:31:37.955Z,46.75
2019-02-24T22:34:10.797Z,46.64
2019-02-24T22:36:43.512Z,46.88
2019-02-24T22:39:16.245Z,46.83
2019-02-24T22:41:48.910Z,47.18
2019-02-24T22:44:21.700Z,47.15
2019-02-24T22:46:54.396Z,47.26
2019-02-24T22:49:27.218Z,47.49
2019-02-24T22:52:00.010Z,47.89
2019-02-24T22:54:32.791Z,48.17
2019-02-24T22:57:05.542Z,48.95
2019-02-24T22:59:38.341Z,48.97
2019-02-24T23:02:11.287Z,49.62
2019-02-24T23:04:44.618Z,50.05
2019-02-24T23:07:17.491Z,50.18
2019-02-24T23:09:50.256Z,50.74
2019-02-24T23:12:22.998Z,50.90
2019-02-24T23:14:57.292Z,50.83
2019-02-24T23:17:30.012Z,51.19
2019-02-24T23:20:02.823Z,51.94
2019-02-24T23:22:37.301Z,52.29
2019-02-24T23:25:10.110Z,51.75
2019-02-24T23:27:44.037Z,51.37
2019-02-24T23:30:17.160Z,51.62
2019-02-24T23:32:49.979Z,51.83
2019-02-24T23:35:22.724Z,52.18
2019-02-24T23:37:55.443Z,52.35
2019-02-24T23:40:28.297Z,52.85
2019-02-24T23:43:02.126Z,52.85
2019-02-24T23:45:34.932Z,53.12
2019-02-24T23:48:07.790Z,53.16
2019-02-24T23:50:40.541Z,53.47
2019-02-24T23:53:13.370Z,52.98
2019-02-24T23:55:46.144Z,52.57
2019-02-24T23:58:18.862Z,51.97
